Wetterdaten: Woche 02.02.15 - 08.02.15 (KW6)
Datum Zeit Temp. A. Feuchte A. Luftdruck Regen Wind Richtung Taupunkt Windchill Windben
02.02.2015 00:00 2,4 C 70 % 996,0 hPa 0,0 l/m 4,2 km/h N -2,5 C 2,4 C 13,3 km/h
02.02.2015 01:00 1,7 C 72 % 996,2 hPa 0,0 l/m 0,8 km/h N -2,8 C 1,7 C 7,7 km/h
02.02.2015 02:00 1,5 C 73 % 996,5 hPa 0,0 l/m 2,2 km/h N -2,9 C 1,5 C 11,3 km/h
02.02.2015 03:00 1,1 C 71 % 996,3 hPa 0,0 l/m 3,5 km/h N -3,6 C 1,1 C 14,1 km/h
02.02.2015 04:00 0,2 C 72 % 996,7 hPa 0,0 l/m 1,4 km/h N -4,2 C 0,2 C 9,3 km/h
02.02.2015 05:00 0,8 C 71 % 996,9 hPa 0,0 l/m 5,4 km/h N -3,9 C 0,3 C 16,9 km/h
02.02.2015 06:00 0,7 C 74 % 997,4 hPa 0,0 l/m 4,5 km/h N -3,4 C 0,3 C 15,3 km/h
02.02.2015 07:00 -0,4 C 75 % 997,9 hPa 0,0 l/m 0,3 km/h N -4,2 C -0,4 C 2,8 km/h
02.02.2015 08:00 -1,6 C 79 % 998,4 hPa 0,0 l/m 0,0 km/h N -4,8 C -1,6 C 0,8 km/h
02.02.2015 09:00 1,0 C 79 % 998,1 hPa 0,0 l/m 2,9 km/h N -2,2 C 1,0 C 10,4 km/h
02.02.2015 10:00 3,1 C 73 % 998,2 hPa 0,0 l/m 5,3 km/h N -1,3 C 3,0 C 17,3 km/h
02.02.2015 11:00 3,8 C 71 % 998,2 hPa 0,0 l/m 7,2 km/h N -1,1 C 2,4 C 18,1 km/h
02.02.2015 12:00 4,0 C 71 % 998,1 hPa 0,0 l/m 6,7 km/h N -0,8 C 3,5 C 18,5 km/h
02.02.2015 13:00 4,8 C 68 % 998,3 hPa 0,0 l/m 7,6 km/h N -0,6 C 3,7 C 21,3 km/h
02.02.2015 14:00 4,1 C 69 % 998,3 hPa 0,0 l/m 7,2 km/h N -1,2 C 3,4 C 19,3 km/h
02.02.2015 15:00 3,7 C 70 % 999,0 hPa 0,0 l/m 4,6 km/h N -1,4 C 3,7 C 17,3 km/h
02.02.2015 16:00 2,8 C 75 % 999,2 hPa 0,0 l/m 6,2 km/h N -1,1 C 2,5 C 19,7 km/h
02.02.2015 17:00 2,3 C 74 % 999,8 hPa 0,0 l/m 5,3 km/h N -1,9 C 2,1 C 19,7 km/h
02.02.2015 18:00 2,2 C 69 % 1000,2 hPa 0,0 l/m 7,6 km/h N -2,9 C 0,7 C 24,9 km/h
02.02.2015 19:00 2,0 C 69 % 1000,8 hPa 0,0 l/m 12,2 km/h N -3,1 C -2,8 C 31,4 km/h
02.02.2015 20:00 1,6 C 70 % 1001,2 hPa 0,0 l/m 5,3 km/h N -3,3 C 1,1 C 16,5 km/h
02.02.2015 21:00 1,5 C 72 % 1001,4 hPa 0,0 l/m 2,3 km/h N -3,0 C 1,5 C 11,3 km/h
02.02.2015 22:00 1,5 C 74 % 1001,4 hPa 0,0 l/m 2,7 km/h N -2,6 C 1,5 C 12,5 km/h
02.02.2015 23:00 1,2 C 75 % 1001,8 hPa 0,0 l/m 2,0 km/h N -2,7 C 1,2 C 12,1 km/h
03.02.2015 00:00 0,8 C 77 % 1001,9 hPa 0,0 l/m 0,1 km/h N -2,8 C 0,8 C 2,4 km/h
03.02.2015 01:00 -0,2 C 78 % 1002,3 hPa 0,0 l/m 0,4 km/h N -3,5 C -0,2 C 4,0 km/h
03.02.2015 02:00 -0,1 C 80 % 1002,9 hPa 0,0 l/m 0,6 km/h N -3,1 C -0,1 C 6,4 km/h
03.02.2015 03:00 1,0 C 77 % 1002,9 hPa 0,0 l/m 3,9 km/h N -2,6 C 1,0 C 13,3 km/h
03.02.2015 04:00 1,1 C 73 % 1003,3 hPa 0,0 l/m 3,8 km/h N -3,2 C 1,1 C 12,9 km/h
03.02.2015 05:00 0,6 C 72 % 1003,6 hPa 0,0 l/m 3,9 km/h N -3,8 C 0,6 C 12,9 km/h
03.02.2015 06:00 -0,0 C 73 % 1003,9 hPa 0,0 l/m 0,7 km/h N -4,3 C -0,0 C 5,2 km/h
03.02.2015 07:00 -1,7 C 75 % 1004,3 hPa 0,0 l/m 0,0 km/h N -5,4 C -1,7 C 0,4 km/h
03.02.2015 08:00 -1,6 C 80 % 1004,5 hPa 0,0 l/m 0,5 km/h N -4,6 C -1,6 C 4,0 km/h
03.02.2015 09:00 1,5 C 70 % 1004,8 hPa 0,0 l/m 1,4 km/h N -3,5 C 1,5 C 6,4 km/h
03.02.2015 10:00 3,7 C 57 % 1004,9 hPa 0,0 l/m 3,1 km/h N -4,2 C 3,7 C 10,9 km/h
03.02.2015 11:00 4,6 C 53 % 1004,8 hPa 0,0 l/m 1,6 km/h N -4,2 C 4,6 C 7,6 km/h
03.02.2015 12:00 5,0 C 54 % 1004,6 hPa 0,0 l/m 2,2 km/h N -3,5 C 5,0 C 10,0 km/h
03.02.2015 13:00 5,2 C 56 % 1004,3 hPa 0,0 l/m 1,7 km/h N -3,0 C 5,2 C 9,7 km/h
03.02.2015 14:00 5,5 C 60 % 1004,0 hPa 0,0 l/m 1,1 km/h N -1,7 C 5,5 C 7,6 km/h
03.02.2015 15:00 4,6 C 64 % 1004,1 hPa 0,0 l/m 1,2 km/h N -1,7 C 4,6 C 8,0 km/h
03.02.2015 16:00 3,3 C 71 % 1004,1 hPa 0,0 l/m 0,7 km/h N -1,6 C 3,3 C 4,0 km/h
03.02.2015 17:00 1,8 C 75 % 1004,5 hPa 0,0 l/m 0,1 km/h N -2,1 C 1,8 C 1,2 km/h
03.02.2015 18:00 -0,1 C 79 % 1004,9 hPa 0,0 l/m 0,0 km/h N -3,4 C -0,1 C 0,0 km/h
03.02.2015 19:00 -1,3 C 82 % 1005,3 hPa 0,0 l/m 0,0 km/h N -4,0 C -1,3 C 0,0 km/h
03.02.2015 20:00 -2,3 C 83 % 1005,4 hPa 0,0 l/m 0,0 km/h N -4,7 C -2,3 C 0,0 km/h
03.02.2015 21:00 -3,0 C 84 % 1005,5 hPa 0,0 l/m 0,0 km/h N -5,2 C -3,0 C 0,0 km/h
03.02.2015 22:00 -3,5 C 85 % 1005,6 hPa 0,0 l/m 0,0 km/h N -5,6 C -3,5 C 0,0 km/h
03.02.2015 23:00 -3,8 C 86 % 1005,5 hPa 0,0 l/m 0,0 km/h N -5,9 C -3,8 C 0,0 km/h
04.02.2015 00:00 -4,0 C 86 % 1005,5 hPa 0,0 l/m 0,0 km/h N -6,0 C -4,0 C 0,0 km/h
04.02.2015 01:00 -4,3 C 86 % 1005,7 hPa 0,0 l/m 0,0 km/h N -6,3 C -4,3 C 0,0 km/h
04.02.2015 02:00 -4,4 C 86 % 1006,2 hPa 0,0 l/m 0,0 km/h N -6,4 C -4,4 C 0,8 km/h
04.02.2015 03:00 -2,4 C 85 % 1006,3 hPa 0,0 l/m 1,3 km/h N -4,6 C -2,4 C 4,4 km/h
04.02.2015 04:00 -1,1 C 85 % 1006,5 hPa 0,0 l/m 2,9 km/h N -3,3 C -1,1 C 10,4 km/h
04.02.2015 05:00 -0,7 C 87 % 1006,8 hPa 0,0 l/m 4,0 km/h N -2,6 C -0,7 C 11,3 km/h
04.02.2015 06:00 -0,6 C 86 % 1007,3 hPa 0,0 l/m 1,4 km/h N -2,6 C -0,6 C 6,8 km/h
04.02.2015 07:00 -0,4 C 84 % 1008,0 hPa 0,0 l/m 1,5 km/h N -2,7 C -0,4 C 7,6 km/h
04.02.2015 08:00 -0,2 C 84 % 1008,5 hPa 0,0 l/m 2,9 km/h N -2,7 C -0,2 C 8,4 km/h
04.02.2015 09:00 0,2 C 81 % 1008,7 hPa 0,0 l/m 5,6 km/h N -2,7 C -0,0 C 15,3 km/h
04.02.2015 10:00 0,6 C 79 % 1009,2 hPa 0,0 l/m 7,3 km/h N -2,7 C -0,3 C 17,7 km/h
04.02.2015 11:00 0,8 C 77 % 1009,8 hPa 0,0 l/m 7,6 km/h N -2,7 C -0,4 C 19,7 km/h
04.02.2015 12:00 1,0 C 75 % 1010,0 hPa 0,0 l/m 8,1 km/h N -2,9 C -0,6 C 20,5 km/h
04.02.2015 13:00 1,3 C 74 % 1010,3 hPa 0,0 l/m 7,1 km/h N -2,8 C 0,5 C 18,5 km/h
04.02.2015 14:00 1,2 C 74 % 1010,6 hPa 0,0 l/m 6,6 km/h N -3,0 C 0,7 C 18,1 km/h
04.02.2015 15:00 1,1 C 72 % 1011,0 hPa 0,0 l/m 5,9 km/h N -3,3 C 0,9 C 16,1 km/h
04.02.2015 16:00 0,5 C 73 % 1011,5 hPa 0,0 l/m 3,5 km/h N -3,7 C 0,5 C 12,9 km/h
04.02.2015 17:00 -0,2 C 73 % 1012,3 hPa 0,0 l/m 0,6 km/h N -4,4 C -0,2 C 6,4 km/h
04.02.2015 18:00 -0,8 C 74 % 1013,0 hPa 0,0 l/m 1,9 km/h N -4,8 C -0,8 C 7,2 km/h
04.02.2015 19:00 -0,6 C 72 % 1013,7 hPa 0,0 l/m 3,1 km/h N -5,0 C -0,6 C 11,3 km/h
04.02.2015 20:00 -0,8 C 73 % 1014,3 hPa 0,0 l/m 3,7 km/h N -5,1 C -0,8 C 9,3 km/h
04.02.2015 21:00 -0,8 C 73 % 1015,2 hPa 0,0 l/m 1,8 km/h N -5,0 C -0,8 C 10,1 km/h
04.02.2015 22:00 -1,3 C 75 % 1016,0 hPa 0,0 l/m 1,0 km/h N -5,2 C -1,3 C 7,2 km/h
04.02.2015 23:00 -1,3 C 76 % 1016,5 hPa 0,0 l/m 0,4 km/h N -5,0 C -1,3 C 4,4 km/h
05.02.2015 00:00 -1,3 C 76 % 1016,4 hPa 0,0 l/m 0,5 km/h N -5,0 C -1,3 C 3,6 km/h
05.02.2015 01:00 -1,7 C 74 % 1016,5 hPa 0,0 l/m 0,2 km/h N -5,7 C -1,7 C 2,8 km/h
05.02.2015 02:00 -2,8 C 76 % 1017,0 hPa 0,0 l/m 0,2 km/h N -6,4 C -2,8 C 2,4 km/h
05.02.2015 03:00 -3,8 C 77 % 1017,2 hPa 0,0 l/m 0,0 km/h N -7,2 C -3,8 C 0,0 km/h
05.02.2015 04:00 -4,6 C 80 % 1017,0 hPa 0,0 l/m 0,0 km/h N -7,6 C -4,6 C 0,4 km/h
05.02.2015 05:00 -5,2 C 82 % 1017,2 hPa 0,0 l/m 0,0 km/h N -7,9 C -5,2 C 0,0 km/h
05.02.2015 06:00 -5,4 C 83 % 1017,1 hPa 0,0 l/m 0,0 km/h N -7,8 C -5,4 C 0,0 km/h
05.02.2015 07:00 -4,6 C 85 % 1017,5 hPa 0,0 l/m 0,6 km/h N -6,8 C -4,6 C 3,2 km/h
05.02.2015 08:00 -2,8 C 83 % 1018,1 hPa 0,0 l/m 0,8 km/h N -5,3 C -2,8 C 4,4 km/h
05.02.2015 09:00 -1,8 C 81 % 1018,3 hPa 0,0 l/m 0,9 km/h N -4,7 C -1,8 C 4,4 km/h
05.02.2015 10:00 -1,0 C 78 % 1018,6 hPa 0,0 l/m 0,4 km/h N -4,3 C -1,0 C 4,0 km/h
05.02.2015 11:00 -0,6 C 76 % 1018,8 hPa 0,0 l/m 0,1 km/h N -4,2 C -0,6 C 2,4 km/h
05.02.2015 12:00 -0,8 C 78 % 1018,9 hPa 0,0 l/m 0,1 km/h N -4,2 C -0,8 C 2,8 km/h
05.02.2015 13:00 -0,8 C 79 % 1019,3 hPa 0,0 l/m 0,0 km/h N -4,0 C -0,8 C 1,2 km/h
05.02.2015 14:00 -0,4 C 78 % 1019,3 hPa 0,0 l/m 0,7 km/h N -3,8 C -0,4 C 4,4 km/h
05.02.2015 15:00 0,3 C 75 % 1019,2 hPa 0,0 l/m 1,1 km/h N -3,6 C 0,3 C 6,4 km/h
05.02.2015 16:00 0,4 C 74 % 1019,3 hPa 0,0 l/m 0,3 km/h N -3,7 C 0,4 C 3,6 km/h
05.02.2015 17:00 -0,1 C 74 % 1019,7 hPa 0,0 l/m 0,0 km/h N -4,2 C -0,1 C 1,2 km/h
05.02.2015 18:00 -1,0 C 78 % 1020,1 hPa 0,0 l/m 0,6 km/h N -4,4 C -1,0 C 4,4 km/h
05.02.2015 19:00 -1,5 C 79 % 1020,7 hPa 0,0 l/m 0,4 km/h N -4,7 C -1,5 C 3,2 km/h
05.02.2015 20:00 -1,9 C 80 % 1020,9 hPa 0,0 l/m 0,8 km/h N -4,8 C -1,9 C 4,8 km/h
05.02.2015 21:00 -2,0 C 79 % 1021,2 hPa 0,0 l/m 1,1 km/h N -5,2 C -2,0 C 7,2 km/h
05.02.2015 22:00 -2,5 C 79 % 1021,4 hPa 0,0 l/m 0,2 km/h N -5,7 C -2,5 C 3,2 km/h
05.02.2015 23:00 -3,3 C 80 % 1021,4 hPa 0,0 l/m 1,0 km/h N -6,2 C -3,3 C 4,4 km/h
06.02.2015 00:00 -3,2 C 81 % 1021,0 hPa 0,0 l/m 1,9 km/h N -6,0 C -3,2 C 6,8 km/h
06.02.2015 01:00 -3,3 C 81 % 1020,9 hPa 0,0 l/m 1,2 km/h N -6,1 C -3,3 C 4,8 km/h
06.02.2015 02:00 -3,4 C 82 % 1020,3 hPa 0,0 l/m 3,3 km/h N -6,1 C -3,4 C 10,5 km/h
06.02.2015 03:00 -3,5 C 82 % 1020,0 hPa 0,0 l/m 1,5 km/h N -6,1 C -3,5 C 6,8 km/h
06.02.2015 04:00 -3,8 C 83 % 1019,9 hPa 0,0 l/m 1,5 km/h N -6,2 C -3,8 C 6,8 km/h
06.02.2015 05:00 -3,5 C 83 % 1019,8 hPa 0,0 l/m 3,1 km/h N -6,0 C -3,5 C 8,4 km/h
06.02.2015 06:00 -3,6 C 83 % 1019,5 hPa 0,0 l/m 3,7 km/h N -6,2 C -3,6 C 10,9 km/h
06.02.2015 07:00 -3,5 C 82 % 1019,9 hPa 0,0 l/m 4,8 km/h N -6,2 C -3,5 C 14,1 km/h
06.02.2015 08:00 -3,1 C 81 % 1020,4 hPa 0,0 l/m 4,6 km/h N -5,9 C -3,1 C 11,7 km/h
06.02.2015 09:00 -1,9 C 80 % 1020,9 hPa 0,0 l/m 5,1 km/h N -5,0 C -1,9 C 15,7 km/h
06.02.2015 10:00 -1,4 C 76 % 1021,2 hPa 0,0 l/m 7,9 km/h N -5,1 C -3,0 C 20,5 km/h
06.02.2015 11:00 -1,0 C 73 % 1020,9 hPa 0,0 l/m 7,4 km/h N -5,2 C -2,1 C 19,7 km/h
06.02.2015 12:00 -0,2 C 71 % 1020,3 hPa 0,0 l/m 8,5 km/h N -4,8 C -2,3 C 23,3 km/h
06.02.2015 13:00 0,3 C 67 % 1019,9 hPa 0,0 l/m 8,1 km/h N -5,1 C -1,4 C 20,1 km/h
06.02.2015 14:00 0,1 C 68 % 1020,0 hPa 0,0 l/m 7,3 km/h N -5,2 C -0,9 C 20,1 km/h
06.02.2015 15:00 0,0 C 67 % 1020,3 hPa 0,0 l/m 7,9 km/h N -5,5 C -1,5 C 21,7 km/h
06.02.2015 16:00 -0,5 C 68 % 1020,8 hPa 0,0 l/m 7,7 km/h N -5,6 C -1,9 C 20,5 km/h
06.02.2015 17:00 -1,2 C 69 % 1021,6 hPa 0,0 l/m 7,7 km/h N -6,1 C -2,5 C 22,1 km/h
06.02.2015 18:00 -1,8 C 72 % 1022,5 hPa 0,0 l/m 6,7 km/h N -6,2 C -2,4 C 19,7 km/h
06.02.2015 19:00 -2,1 C 73 % 1023,2 hPa 0,0 l/m 5,8 km/h N -6,3 C -2,1 C 19,3 km/h
06.02.2015 20:00 -2,1 C 73 % 1023,7 hPa 0,0 l/m 6,9 km/h N -6,3 C -2,8 C 20,9 km/h
06.02.2015 21:00 -2,1 C 73 % 1024,1 hPa 0,0 l/m 7,7 km/h N -6,3 C -3,6 C 22,5 km/h
06.02.2015 22:00 -2,2 C 73 % 1024,3 hPa 0,0 l/m 7,8 km/h N -6,3 C -3,7 C 20,9 km/h
06.02.2015 23:00 -2,2 C 73 % 1024,9 hPa 0,0 l/m 7,4 km/h N -6,4 C -3,3 C 19,3 km/h
07.02.2015 00:00 -2,3 C 73 % 1025,5 hPa 0,0 l/m 6,9 km/h N -6,5 C -2,9 C 20,9 km/h
07.02.2015 01:00 -2,4 C 73 % 1025,7 hPa 0,0 l/m 7,2 km/h N -6,6 C -3,4 C 18,9 km/h
07.02.2015 02:00 -2,3 C 73 % 1026,3 hPa 0,0 l/m 7,3 km/h N -6,6 C -3,5 C 21,7 km/h
07.02.2015 03:00 -2,4 C 72 % 1026,6 hPa 0,0 l/m 6,1 km/h N -6,7 C -2,6 C 16,9 km/h
07.02.2015 04:00 -2,4 C 72 % 1026,9 hPa 0,0 l/m 7,0 km/h N -6,8 C -3,3 C 20,5 km/h
07.02.2015 05:00 -2,5 C 72 % 1027,2 hPa 0,0 l/m 6,8 km/h N -6,9 C -3,6 C 19,3 km/h
07.02.2015 06:00 -2,8 C 71 % 1027,3 hPa 0,0 l/m 7,4 km/h N -7,3 C -3,8 C 20,1 km/h
07.02.2015 07:00 -2,8 C 71 % 1027,6 hPa 0,0 l/m 6,6 km/h N -7,3 C -3,0 C 18,9 km/h
07.02.2015 08:00 -2,7 C 70 % 1027,8 hPa 0,0 l/m 6,7 km/h N -7,3 C -3,2 C 19,3 km/h
07.02.2015 09:00 -2,4 C 69 % 1027,8 hPa 0,0 l/m 8,0 km/h N -7,3 C -4,1 C 21,3 km/h
07.02.2015 10:00 -1,7 C 67 % 1027,6 hPa 0,0 l/m 9,0 km/h N -7,0 C -4,4 C 21,7 km/h
07.02.2015 11:00 -1,0 C 66 % 1027,3 hPa 0,0 l/m 9,5 km/h N -6,6 C -4,1 C 23,7 km/h
07.02.2015 12:00 -0,3 C 65 % 1026,7 hPa 0,0 l/m 9,5 km/h N -6,1 C -3,4 C 21,7 km/h
07.02.2015 13:00 0,5 C 61 % 1025,7 hPa 0,0 l/m 8,5 km/h N -6,2 C -1,6 C 20,9 km/h
07.02.2015 14:00 1,0 C 58 % 1024,8 hPa 0,0 l/m 7,2 km/h N -6,3 C 0,0 C 20,1 km/h
07.02.2015 15:00 1,0 C 58 % 1024,0 hPa 0,0 l/m 8,8 km/h N -6,3 C -1,3 C 20,5 km/h
07.02.2015 16:00 0,5 C 60 % 1023,6 hPa 0,0 l/m 5,6 km/h N -6,5 C 0,1 C 17,7 km/h
07.02.2015 17:00 -0,1 C 61 % 1023,4 hPa 0,0 l/m 2,4 km/h N -6,7 C -0,1 C 9,6 km/h
07.02.2015 18:00 -0,4 C 61 % 1022,7 hPa 0,0 l/m 2,4 km/h N -7,0 C -0,4 C 12,1 km/h
07.02.2015 19:00 -0,6 C 61 % 1021,8 hPa 0,0 l/m 3,4 km/h N -7,2 C -0,6 C 12,5 km/h
07.02.2015 20:00 -0,5 C 61 % 1021,2 hPa 0,0 l/m 3,8 km/h N -7,1 C -0,5 C 13,3 km/h
07.02.2015 21:00 -0,6 C 60 % 1019,9 hPa 0,0 l/m 4,1 km/h N -7,5 C -1,0 C 16,1 km/h
07.02.2015 22:00 -0,4 C 59 % 1018,5 hPa 0,0 l/m 7,9 km/h N -7,5 C -2,6 C 26,5 km/h
07.02.2015 23:00 -0,1 C 59 % 1017,2 hPa 0,0 l/m 9,7 km/h N -7,2 C -3,0 C 33,0 km/h
08.02.2015 00:00 -0,3 C 60 % 1017,1 hPa 0,0 l/m 21,4 km/h N -7,2 C -10,5 C 47,1 km/h
08.02.2015 01:00 0,0 C 60 % 1016,0 hPa 0,0 l/m 15,0 km/h N -6,8 C -6,9 C 37,0 km/h
08.02.2015 02:00 0,5 C 62 % 1013,9 hPa 0,0 l/m 15,4 km/h N -6,0 C -5,8 C 38,2 km/h
08.02.2015 03:00 0,5 C 60 % 1013,5 hPa 0,0 l/m 16,6 km/h N -6,3 C -6,8 C 45,0 km/h
08.02.2015 04:00 0,0 C 65 % 1013,4 hPa 0,0 l/m 12,3 km/h N -5,8 C -5,2 C 35,8 km/h
08.02.2015 05:00 -0,6 C 73 % 1012,4 hPa 0,0 l/m 10,3 km/h N -4,9 C -4,3 C 34,6 km/h
08.02.2015 06:00 -0,7 C 72 % 1010,8 hPa 0,0 l/m 11,4 km/h N -5,1 C -5,3 C 31,8 km/h
08.02.2015 07:00 -0,6 C 76 % 1011,0 hPa 0,0 l/m 17,6 km/h N -4,3 C -9,2 C 42,2 km/h
08.02.2015 08:00 -0,7 C 80 % 1012,1 hPa 0,0 l/m 16,4 km/h N -3,7 C -8,4 C 37,0 km/h
08.02.2015 09:00 -1,5 C 85 % 1013,1 hPa 0,0 l/m 16,8 km/h N -3,7 C -9,9 C 37,0 km/h
08.02.2015 10:00 -0,4 C 86 % 1013,4 hPa 0,0 l/m 17,5 km/h N -2,5 C -8,8 C 35,0 km/h
08.02.2015 11:00 0,4 C 79 % 1014,5 hPa 0,0 l/m 14,8 km/h N -2,8 C -6,3 C 34,2 km/h
08.02.2015 12:00 1,3 C 64 % 1014,7 hPa 0,3 l/m 13,9 km/h N -4,9 C -4,7 C 33,0 km/h
08.02.2015 13:00 1,3 C 62 % 1014,8 hPa 0,0 l/m 14,4 km/h N -5,2 C -5,0 C 40,7 km/h
08.02.2015 14:00 0,3 C 66 % 1015,5 hPa 0,0 l/m 14,2 km/h N -5,4 C -6,1 C 34,6 km/h
08.02.2015 15:00 -1,2 C 77 % 1016,7 hPa 0,0 l/m 9,6 km/h N -4,6 C -4,1 C 29,0 km/h
08.02.2015 16:00 -0,7 C 66 % 1017,5 hPa 0,0 l/m 10,7 km/h N -6,4 C -4,6 C 31,4 km/h
08.02.2015 17:00 -0,6 C 61 % 1018,3 hPa 0,0 l/m 9,7 km/h N -7,1 C -3,8 C 26,2 km/h
08.02.2015 18:00 -1,0 C 63 % 1019,2 hPa 0,0 l/m 11,3 km/h N -7,2 C -5,6 C 29,8 km/h
08.02.2015 19:00 -1,5 C 65 % 1020,2 hPa 0,0 l/m 9,9 km/h N -7,3 C -5,0 C 25,8 km/h
08.02.2015 20:00 -1,7 C 66 % 1021,0 hPa 0,0 l/m 12,8 km/h N -7,2 C -7,5 C 28,6 km/h
08.02.2015 21:00 -1,8 C 68 % 1021,5 hPa 0,0 l/m 10,7 km/h N -7,0 C -6,0 C 27,8 km/h
08.02.2015 22:00 -2,0 C 72 % 1021,9 hPa 0,0 l/m 12,7 km/h N -6,4 C -7,7 C 29,0 km/h
08.02.2015 23:00 -1,6 C 67 % 1022,1 hPa 0,0 l/m 13,4 km/h N -7,0 C -7,9 C 33,0 km/h
Min-Datum _ 05.02.15 03.02.15 02.02.15 - 02.02.15 - 05.02.15 08.02.15 02.02.15
_ Min-Zeit 06:45 11:30 00:15 - 01:30 - 05:15 00:00 01:30
Minimum _ -5,6 C 51 % 995,9 hPa - 0,0 km/h - -7,9 C -12,0 C 0,0 km/h
Max-Datum _ 03.02.15 04.02.15 07.02.15 08.02.15 08.02.15 - 02.02.15 03.02.15 08.02.15
_ Max-Zeit 14:15 05:45 08:15 12:45 03:00 - 12:45 14:15 03:00
Maximum _ 6,1 C 92 % 1027,9 hPa 0,3 l/m 26,0 km/h
N
- -0,2 C 6,1 C 56,3 km/h
N
Durchschnitt _ -0,5 C 73 % 1013,4 hPa #0,3 l/m 5,0 km/h N -4,8 C -1,8 C 14,8 km/h